Time;durP1;ratioP1;P1;durP2;ratioP2;P2;SDS_P1;SDS_P2;PMS_P1;PMS_P2;Temp;Humidity;BMP_temperature;BMP_pressure;BME280_temperature;BME280_humidity;BME280_pressure;Samples;Min_cycle;Max_cycle;Signal;HPM_P1;HPM_P2
2023/07/29 00:01:51;;;;;;;;;;;;;;;30.00;36.66;100524.20;102272;1305;61970;-82
2023/07/29 00:04:17;;;;;;;;;;;;;;;29.99;36.63;100524.77;102193;1305;61425;-82
2023/07/29 00:06:43;;;;;;;;;;;;;;;29.99;36.69;100525.17;102256;1303;61506;-82
2023/07/29 00:09:08;;;;;;;;;;;;;;;29.99;36.77;100526.48;102317;1306;61428;-82
2023/07/29 00:11:34;;;;;;;;;;;;;;;29.99;36.85;100525.55;102223;1305;61336;-82
2023/07/29 00:14:00;;;;;;;;;;;;;;;29.98;36.88;100527.23;102316;1303;61424;-82
2023/07/29 00:16:25;;;;;;;;;;;;;;;29.98;36.72;100530.88;102268;1305;61406;-82
2023/07/29 00:18:51;;;;;;;;;;;;;;;29.99;36.72;100530.84;102276;1301;61192;-82
2023/07/29 00:21:16;;;;;;;;;;;;;;;29.98;36.79;100525.46;102220;1304;61425;-82
2023/07/29 00:23:41;;;;;;;;;;;;;;;29.98;36.85;100526.73;102254;1305;61464;-82
2023/07/29 00:26:07;;;;;;;;;;;;;;;29.98;36.93;100524.96;102239;1303;61450;-82
2023/07/29 00:28:33;;;;;;;;;;;;;;;29.97;36.92;100526.08;102233;1305;61438;-80
2023/07/29 00:30:58;;;;;;;;;;;;;;;29.98;36.85;100524.06;102352;1306;62544;-82
2023/07/29 00:33:25;;;;;;;;;;;;;;;29.97;36.87;100520.30;102283;1303;62483;-82
2023/07/29 00:35:51;;;;;;;;;;;;;;;29.97;36.89;100517.08;102255;1303;61437;-82
2023/07/29 00:38:17;;;;;;;;;;;;;;;29.97;37.01;100511.84;102209;1305;61396;-82
2023/07/29 00:40:43;;;;;;;;;;;;;;;29.97;37.01;100510.95;102248;1302;61432;-82
2023/07/29 00:43:08;;;;;;;;;;;;;;;29.97;36.88;100507.10;102288;1308;61355;-82
2023/07/29 00:45:34;;;;;;;;;;;;;;;29.96;36.85;100505.91;102240;1303;61422;-82
2023/07/29 00:47:59;;;;;;;;;;;;;;;29.96;37.06;100509.52;102326;1309;61399;-82
2023/07/29 00:50:27;;;;;;;;;;;;;;;29.96;36.96;100508.98;102249;1303;61439;-82
2023/07/29 00:52:54;;;;;;;;;;;;;;;29.96;36.96;100506.13;102237;1301;61431;-82
2023/07/29 00:55:19;;;;;;;;;;;;;;;29.96;36.93;100505.41;102297;1303;61342;-82
2023/07/29 00:57:48;;;;;;;;;;;;;;;29.96;36.92;100504.52;102287;1307;61505;-82
2023/07/29 01:00:14;;;;;;;;;;;;;;;29.96;37.03;100501.80;102239;1305;65639;-82
2023/07/29 01:02:39;;;;;;;;;;;;;;;29.95;37.11;100503.08;102277;1303;61981;-82
2023/07/29 01:05:06;;;;;;;;;;;;;;;29.95;37.01;100501.45;102289;1304;61470;-82
2023/07/29 01:07:49;;;;;;;;;;;;;;;29.95;37.01;100503.46;102251;1306;61930;-82
2023/07/29 01:10:20;;;;;;;;;;;;;;;29.95;37.08;100500.07;102268;1302;65788;-82
2023/07/29 01:12:54;;;;;;;;;;;;;;;29.95;37.20;100499.19;102277;1303;62980;-82
2023/07/29 01:15:26;;;;;;;;;;;;;;;29.95;37.12;100500.48;102394;1303;61282;-82
2023/07/29 01:17:55;;;;;;;;;;;;;;;29.94;37.15;100505.75;102239;1302;63701;-82
2023/07/29 01:20:20;;;;;;;;;;;;;;;29.95;36.98;100502.98;102326;1305;65829;-82
2023/07/29 01:22:46;;;;;;;;;;;;;;;29.95;37.12;100499.17;102277;1303;61530;-82
2023/07/29 01:25:12;;;;;;;;;;;;;;;29.94;37.03;100497.25;102250;1305;61984;-81
2023/07/29 01:27:38;;;;;;;;;;;;;;;29.94;36.92;100500.52;102227;1305;61701;-81
2023/07/29 01:30:03;;;;;;;;;;;;;;;29.94;37.02;100502.35;102181;1303;61540;-81
2023/07/29 01:32:48;;;;;;;;;;;;;;;29.93;37.11;100497.64;102298;1306;61473;-82
2023/07/29 01:35:16;;;;;;;;;;;;;;;29.93;37.10;100502.59;102237;1302;61317;-82
2023/07/29 01:37:42;;;;;;;;;;;;;;;29.93;37.05;100504.21;102312;1305;61487;-82
2023/07/29 01:40:07;;;;;;;;;;;;;;;29.93;37.23;100505.34;102266;1305;61412;-81
2023/07/29 01:42:33;;;;;;;;;;;;;;;29.93;37.18;100505.89;102314;1306;61447;-81
2023/07/29 01:44:59;;;;;;;;;;;;;;;29.93;37.21;100507.72;102280;1306;61329;-82
2023/07/29 01:47:24;;;;;;;;;;;;;;;29.92;36.98;100506.45;102241;1306;61527;-82
2023/07/29 01:49:50;;;;;;;;;;;;;;;29.93;37.02;100502.08;102367;1308;61393;-82
2023/07/29 01:52:15;;;;;;;;;;;;;;;29.92;37.18;100502.69;102229;1306;62990;-82
2023/07/29 01:54:41;;;;;;;;;;;;;;;29.92;37.24;100504.02;102220;1306;61422;-82
2023/07/29 01:57:06;;;;;;;;;;;;;;;29.92;37.14;100499.70;102364;1301;61879;-81
2023/07/29 01:59:32;;;;;;;;;;;;;;;29.92;37.13;100500.95;102298;1305;61396;-82
2023/07/29 02:01:58;;;;;;;;;;;;;;;29.92;37.09;100505.10;102268;1305;61416;-82
2023/07/29 02:04:23;;;;;;;;;;;;;;;29.91;37.13;100504.77;102307;1316;61736;-82
2023/07/29 02:06:49;;;;;;;;;;;;;;;29.91;37.17;100507.52;102265;1306;61451;-81
2023/07/29 02:09:15;;;;;;;;;;;;;;;29.91;37.16;100508.07;102289;1304;61383;-82
2023/07/29 02:11:40;;;;;;;;;;;;;;;29.91;37.14;100507.55;102323;1301;61390;-82
2023/07/29 02:14:05;;;;;;;;;;;;;;;29.91;37.10;100510.98;102425;1303;61218;-82
2023/07/29 02:16:32;;;;;;;;;;;;;;;29.91;37.18;100507.77;102304;1306;61406;-82
2023/07/29 02:18:58;;;;;;;;;;;;;;;29.90;37.12;100509.64;102292;1305;61386;-82
2023/07/29 02:21:23;;;;;;;;;;;;;;;29.91;37.33;100507.05;102258;1302;61516;-82
2023/07/29 02:23:48;;;;;;;;;;;;;;;29.90;37.21;100506.54;102173;1302;61326;-82
2023/07/29 02:26:14;;;;;;;;;;;;;;;29.90;37.36;100509.60;102471;1316;61457;-82
2023/07/29 02:28:39;;;;;;;;;;;;;;;29.90;37.31;100509.30;102238;1303;69635;-82
2023/07/29 02:31:14;;;;;;;;;;;;;;;29.89;37.27;100509.75;102327;1305;61525;-82
2023/07/29 02:33:39;;;;;;;;;;;;;;;29.90;37.31;100514.58;102266;1303;62120;-82
2023/07/29 02:36:05;;;;;;;;;;;;;;;29.90;37.29;100521.49;102306;1303;61568;-82
2023/07/29 02:38:30;;;;;;;;;;;;;;;29.90;37.29;100518.02;102281;1305;63028;-82
2023/07/29 02:40:55;;;;;;;;;;;;;;;29.89;37.36;100524.44;102269;1305;61521;-82
2023/07/29 02:43:21;;;;;;;;;;;;;;;29.89;37.27;100530.22;102435;1302;61447;-82
2023/07/29 02:45:46;;;;;;;;;;;;;;;29.89;37.43;100529.88;102334;1306;61425;-82
2023/07/29 02:48:12;;;;;;;;;;;;;;;29.89;37.26;100532.09;102244;1305;61529;-82
2023/07/29 02:50:37;;;;;;;;;;;;;;;29.89;37.36;100536.45;102233;1305;61431;-82
2023/07/29 02:53:03;;;;;;;;;;;;;;;29.89;37.33;100536.45;102278;1306;61496;-82
2023/07/29 02:55:29;;;;;;;;;;;;;;;29.89;37.33;100535.23;102254;1303;65947;-82
2023/07/29 02:57:54;;;;;;;;;;;;;;;29.88;37.36;100535.27;102339;1306;61499;-82
2023/07/29 03:00:20;;;;;;;;;;;;;;;29.89;37.33;100540.67;102222;1305;61425;-82
2023/07/29 03:02:45;;;;;;;;;;;;;;;29.89;37.52;100543.92;102173;1303;61416;-82
2023/07/29 03:05:10;;;;;;;;;;;;;;;29.88;37.37;100541.65;102427;1305;61320;-82
2023/07/29 03:07:36;;;;;;;;;;;;;;;29.88;37.37;100539.98;102139;1301;64693;-82
2023/07/29 03:10:02;;;;;;;;;;;;;;;29.88;37.49;100544.75;102249;1303;61434;-81
2023/07/29 03:12:27;;;;;;;;;;;;;;;29.87;37.22;100549.14;102310;1303;61422;-82
2023/07/29 03:14:54;;;;;;;;;;;;;;;29.88;37.47;100550.70;102262;1316;61425;-82
2023/07/29 03:17:19;;;;;;;;;;;;;;;29.88;37.42;100550.19;102231;1303;61496;-82
2023/07/29 03:19:45;;;;;;;;;;;;;;;29.88;37.25;100552.73;102270;1303;61400;-82
2023/07/29 03:22:11;;;;;;;;;;;;;;;29.88;37.39;100556.55;102252;1303;61334;-82
2023/07/29 03:24:36;;;;;;;;;;;;;;;29.88;37.40;100557.05;102355;1305;61422;-82
2023/07/29 03:27:02;;;;;;;;;;;;;;;29.87;37.57;100559.48;102243;1309;61406;-82
2023/07/29 03:29:27;;;;;;;;;;;;;;;29.88;37.39;100559.44;102229;1303;61489;-82
2023/07/29 03:31:52;;;;;;;;;;;;;;;29.87;37.50;100554.95;102273;1308;61407;-82
2023/07/29 03:34:18;;;;;;;;;;;;;;;29.87;37.54;100552.23;102264;1303;61422;-82
2023/07/29 03:36:45;;;;;;;;;;;;;;;29.87;37.50;100551.52;102288;1303;61381;-82
2023/07/29 03:39:12;;;;;;;;;;;;;;;29.87;37.51;100549.89;102285;1305;61441;-81
2023/07/29 03:41:38;;;;;;;;;;;;;;;29.87;37.43;100552.78;102290;1304;61333;-81
2023/07/29 03:44:05;;;;;;;;;;;;;;;29.87;37.34;100554.77;102245;1306;61736;-81
2023/07/29 03:46:31;;;;;;;;;;;;;;;29.88;37.62;100556.76;102274;1303;61490;-81
2023/07/29 03:48:57;;;;;;;;;;;;;;;29.88;37.46;100558.02;102204;1305;61403;-83
2023/07/29 03:51:24;;;;;;;;;;;;;;;29.87;37.45;100558.96;102189;1303;61939;-83
2023/07/29 03:53:50;;;;;;;;;;;;;;;29.88;37.54;100558.19;102308;1303;61491;-84
2023/07/29 03:56:15;;;;;;;;;;;;;;;29.88;37.49;100559.11;102285;1306;61407;-82
2023/07/29 03:58:40;;;;;;;;;;;;;;;29.88;37.52;100559.98;102349;1303;61466;-81
2023/07/29 04:01:06;;;;;;;;;;;;;;;29.88;37.41;100556.02;102235;1303;61412;-83
2023/07/29 04:03:32;;;;;;;;;;;;;;;29.88;37.43;100554.38;102267;1305;61460;-82
2023/07/29 04:05:58;;;;;;;;;;;;;;;29.88;37.70;100558.53;102321;1303;61381;-82
2023/07/29 04:08:23;;;;;;;;;;;;;;;29.88;37.50;100554.03;102264;1303;61416;-82
2023/07/29 04:10:49;;;;;;;;;;;;;;;29.88;37.56;100552.70;102296;1303;61425;-82
2023/07/29 04:13:15;;;;;;;;;;;;;;;29.88;37.67;100549.27;102197;1305;61879;-82
2023/07/29 04:15:40;;;;;;;;;;;;;;;29.88;37.44;100547.10;102264;1303;61352;-82
2023/07/29 04:18:06;;;;;;;;;;;;;;;29.88;37.57;100546.48;102207;1305;61457;-82
2023/07/29 04:20:32;;;;;;;;;;;;;;;29.88;37.75;100549.77;102153;1302;61441;-81
2023/07/29 04:22:57;;;;;;;;;;;;;;;29.88;37.51;100553.39;102340;1307;61998;-82
2023/07/29 04:25:23;;;;;;;;;;;;;;;29.89;37.56;100551.17;102271;1301;61945;-82
2023/07/29 04:27:48;;;;;;;;;;;;;;;29.89;37.52;100555.84;102283;1303;61460;-82
2023/07/29 04:30:14;;;;;;;;;;;;;;;29.89;37.51;100556.77;102285;1302;61240;-82
2023/07/29 04:32:39;;;;;;;;;;;;;;;29.90;37.60;100557.61;102250;1308;61431;-82
2023/07/29 04:35:05;;;;;;;;;;;;;;;29.89;37.52;100558.69;102245;1308;61432;-82
2023/07/29 04:37:30;;;;;;;;;;;;;;;29.90;37.60;100555.06;102301;1303;61749;-81
2023/07/29 04:39:56;;;;;;;;;;;;;;;29.90;37.57;100560.64;102412;1303;61491;-82
2023/07/29 04:42:21;;;;;;;;;;;;;;;29.90;37.67;100563.48;102250;1303;61344;-81
2023/07/29 04:44:46;;;;;;;;;;;;;;;29.91;37.71;100566.50;102224;1308;61431;-81
2023/07/29 04:47:12;;;;;;;;;;;;;;;29.91;37.46;100565.20;102240;1305;61761;-82
2023/07/29 04:49:37;;;;;;;;;;;;;;;29.91;37.48;100566.30;102252;1303;61477;-81
2023/07/29 04:52:03;;;;;;;;;;;;;;;29.92;37.62;100562.24;102283;1303;61392;-82
2023/07/29 04:54:29;;;;;;;;;;;;;;;29.92;37.54;100561.64;102312;1308;61422;-82
2023/07/29 04:56:54;;;;;;;;;;;;;;;29.93;37.39;100559.19;102331;1308;62160;-82
2023/07/29 04:59:20;;;;;;;;;;;;;;;29.94;37.55;100561.30;102161;1304;61512;-82
2023/07/29 05:01:45;;;;;;;;;;;;;;;29.95;37.63;100562.11;102320;1303;61515;-82
2023/07/29 05:04:11;;;;;;;;;;;;;;;29.95;37.78;100564.97;102298;1308;61463;-82
2023/07/29 05:06:36;;;;;;;;;;;;;;;29.96;37.68;100563.09;102276;1303;61330;-81
2023/07/29 05:09:17;;;;;;;;;;;;;;;29.97;37.76;100570.82;102229;1303;61354;-82
2023/07/29 05:11:45;;;;;;;;;;;;;;;29.97;37.67;100568.36;102263;1303;64772;-82
2023/07/29 05:14:14;;;;;;;;;;;;;;;29.98;37.75;100567.77;102207;1303;65638;-82
2023/07/29 05:16:39;;;;;;;;;;;;;;;29.99;37.75;100566.77;102307;1306;62560;-82
2023/07/29 05:19:05;;;;;;;;;;;;;;;29.99;37.87;100569.95;102219;1305;61701;-82
2023/07/29 05:21:30;;;;;;;;;;;;;;;30.00;37.80;100568.09;102283;1303;61419;-82
2023/07/29 05:23:56;;;;;;;;;;;;;;;30.01;37.95;100568.85;102315;1303;61516;-82
2023/07/29 05:26:22;;;;;;;;;;;;;;;30.02;37.90;100570.15;102312;1302;61454;-82
2023/07/29 05:28:47;;;;;;;;;;;;;;;30.03;37.96;100566.47;102251;1308;61475;-82
2023/07/29 05:31:12;;;;;;;;;;;;;;;30.03;38.14;100568.55;102310;1303;61525;-82
2023/07/29 05:33:38;;;;;;;;;;;;;;;30.04;38.00;100573.04;102256;1306;61744;-82
2023/07/29 05:36:03;;;;;;;;;;;;;;;30.05;38.05;100578.04;102248;1303;61431;-82
2023/07/29 05:38:29;;;;;;;;;;;;;;;30.05;37.86;100577.58;102332;1307;61576;-82
2023/07/29 05:40:55;;;;;;;;;;;;;;;30.06;37.96;100578.98;102255;1301;61422;-82
2023/07/29 05:43:20;;;;;;;;;;;;;;;30.07;38.09;100581.61;102237;1305;61425;-82
2023/07/29 05:45:45;;;;;;;;;;;;;;;30.08;38.01;100584.22;102201;1308;61441;-82
2023/07/29 05:48:11;;;;;;;;;;;;;;;30.08;38.01;100581.66;102259;1303;61432;-82
2023/07/29 05:50:36;;;;;;;;;;;;;;;30.09;37.80;100585.04;102275;1303;61431;-82
2023/07/29 05:53:02;;;;;;;;;;;;;;;30.09;38.00;100592.59;102260;1302;61345;-82
2023/07/29 05:55:27;;;;;;;;;;;;;;;30.11;37.96;100593.19;102212;1303;61515;-82
2023/07/29 05:57:53;;;;;;;;;;;;;;;30.11;37.98;100593.30;102274;1303;61489;-82
2023/07/29 06:00:18;;;;;;;;;;;;;;;30.13;38.06;100599.10;102236;1303;61386;-82
2023/07/29 06:02:44;;;;;;;;;;;;;;;30.13;38.03;100601.92;102296;1303;61413;-82
2023/07/29 06:05:09;;;;;;;;;;;;;;;30.15;37.88;100603.05;102278;1306;61456;-82
2023/07/29 06:07:35;;;;;;;;;;;;;;;30.16;37.94;100606.58;102253;1302;61447;-82
2023/07/29 06:10:00;;;;;;;;;;;;;;;30.17;37.93;100607.74;102270;1305;61444;-82
2023/07/29 06:12:26;;;;;;;;;;;;;;;30.18;37.99;100610.70;102376;1304;61445;-82
2023/07/29 06:14:51;;;;;;;;;;;;;;;30.18;37.87;100611.39;102306;1303;65834;-82
2023/07/29 06:17:17;;;;;;;;;;;;;;;30.18;37.85;100605.15;102279;1303;61447;-82
2023/07/29 06:19:42;;;;;;;;;;;;;;;30.19;37.75;100601.77;102278;1303;61415;-82
2023/07/29 06:22:09;;;;;;;;;;;;;;;30.20;37.96;100602.62;102218;1300;61477;-82
2023/07/29 06:24:34;;;;;;;;;;;;;;;30.21;37.86;100602.52;102341;1306;61431;-82
2023/07/29 06:27:00;;;;;;;;;;;;;;;30.22;37.85;100599.65;102429;1303;61515;-81
2023/07/29 06:29:25;;;;;;;;;;;;;;;30.22;37.76;100600.17;102322;1302;61453;-81
2023/07/29 06:31:53;;;;;;;;;;;;;;;30.24;37.69;100599.11;102002;1303;62597;-82
2023/07/29 06:34:18;;;;;;;;;;;;;;;30.24;37.83;100599.95;102190;1305;61441;-81
2023/07/29 06:36:44;;;;;;;;;;;;;;;30.25;37.90;100601.14;102303;1303;61441;-83
2023/07/29 06:39:09;;;;;;;;;;;;;;;30.25;37.94;100604.70;102289;1309;61848;-82
2023/07/29 06:41:35;;;;;;;;;;;;;;;30.25;37.78;100601.78;102413;1303;61822;-82
2023/07/29 06:44:00;;;;;;;;;;;;;;;30.26;37.62;100601.34;102258;1302;61377;-82
2023/07/29 06:46:26;;;;;;;;;;;;;;;30.27;37.74;100601.30;102387;1303;61781;-82
2023/07/29 06:48:51;;;;;;;;;;;;;;;30.28;37.84;100603.76;102260;1302;61512;-82
2023/07/29 06:51:16;;;;;;;;;;;;;;;30.28;37.76;100597.73;102241;1303;61559;-82
2023/07/29 06:53:42;;;;;;;;;;;;;;;30.29;37.80;100601.13;102248;1308;61860;-82
2023/07/29 06:56:07;;;;;;;;;;;;;;;30.29;37.80;100600.38;102334;1303;61453;-82
2023/07/29 06:58:34;;;;;;;;;;;;;;;30.29;37.75;100600.68;102363;1305;61412;-82
2023/07/29 07:01:00;;;;;;;;;;;;;;;30.29;37.69;100602.33;102279;1306;61442;-82
2023/07/29 07:03:26;;;;;;;;;;;;;;;30.30;37.81;100604.44;102246;1303;61425;-82
2023/07/29 07:05:51;;;;;;;;;;;;;;;30.30;37.84;100600.59;102306;1303;61436;-82
2023/07/29 07:08:17;;;;;;;;;;;;;;;30.30;37.81;100599.29;102182;1302;61460;-82
2023/07/29 07:10:42;;;;;;;;;;;;;;;30.30;37.78;100599.67;102081;1303;307591;-82
2023/07/29 07:13:07;;;;;;;;;;;;;;;30.30;37.65;100603.82;102255;1306;61832;-82
2023/07/29 07:15:33;;;;;;;;;;;;;;;30.30;37.86;100602.76;102330;1303;61841;-82
2023/07/29 07:17:59;;;;;;;;;;;;;;;30.31;37.72;100598.15;102250;1306;61353;-82
2023/07/29 07:20:25;;;;;;;;;;;;;;;30.31;37.76;100600.27;102322;1303;61415;-82
2023/07/29 07:22:50;;;;;;;;;;;;;;;30.31;37.61;100600.14;102336;1303;61438;-82
2023/07/29 07:25:17;;;;;;;;;;;;;;;30.31;37.72;100597.91;102298;1305;65810;-82
2023/07/29 07:27:42;;;;;;;;;;;;;;;30.32;37.71;100593.88;102262;1303;61492;-82
2023/07/29 07:30:08;;;;;;;;;;;;;;;30.31;37.68;100588.84;102296;1308;61348;-82
2023/07/29 07:32:33;;;;;;;;;;;;;;;30.32;37.89;100589.85;102248;1303;61445;-82
2023/07/29 07:34:59;;;;;;;;;;;;;;;30.32;37.82;100588.60;102306;1303;61307;-82
2023/07/29 07:37:24;;;;;;;;;;;;;;;30.32;37.64;100584.36;102289;1303;61439;-82
2023/07/29 07:39:50;;;;;;;;;;;;;;;30.32;37.68;100586.62;102246;1308;61499;-82
2023/07/29 07:42:15;;;;;;;;;;;;;;;30.32;37.67;100587.09;102246;1303;61518;-82
2023/07/29 07:44:40;;;;;;;;;;;;;;;30.32;37.71;100586.71;102203;1303;61409;-82
2023/07/29 07:47:06;;;;;;;;;;;;;;;30.32;37.70;100584.37;102288;1303;61628;-82
2023/07/29 07:49:31;;;;;;;;;;;;;;;30.32;37.72;100585.16;102338;1305;61503;-82
2023/07/29 07:51:57;;;;;;;;;;;;;;;30.32;37.78;100584.58;102256;1308;61444;-82
2023/07/29 07:54:22;;;;;;;;;;;;;;;30.32;37.64;100587.84;102300;1303;61514;-82
2023/07/29 07:56:47;;;;;;;;;;;;;;;30.32;37.70;100590.56;102326;1303;62011;-82
2023/07/29 07:59:13;;;;;;;;;;;;;;;30.32;37.76;100588.77;102247;1303;63927;-82
2023/07/29 08:01:39;;;;;;;;;;;;;;;30.32;37.60;100590.40;102234;1307;61511;-82
2023/07/29 08:04:04;;;;;;;;;;;;;;;30.32;37.72;100587.05;102256;1302;61368;-82
2023/07/29 08:06:30;;;;;;;;;;;;;;;30.33;37.64;100588.27;102242;1303;61486;-82
2023/07/29 08:08:55;;;;;;;;;;;;;;;30.33;37.75;100591.02;102375;1305;61355;-81
2023/07/29 08:11:21;;;;;;;;;;;;;;;30.32;37.68;100587.60;102272;1302;63592;-82
2023/07/29 08:13:46;;;;;;;;;;;;;;;30.33;37.69;100589.55;102289;1303;61483;-82
2023/07/29 08:16:12;;;;;;;;;;;;;;;30.33;37.68;100584.83;102309;1305;61504;-82
2023/07/29 08:18:37;;;;;;;;;;;;;;;30.33;37.79;100579.52;102243;1303;61429;-82
2023/07/29 08:21:03;;;;;;;;;;;;;;;30.33;37.78;100578.09;102353;1303;61473;-82
2023/07/29 08:23:29;;;;;;;;;;;;;;;30.33;37.69;100579.70;102266;1303;61409;-82
2023/07/29 08:25:56;;;;;;;;;;;;;;;30.34;37.67;100577.28;102213;1303;61295;-82
2023/07/29 08:28:23;;;;;;;;;;;;;;;30.34;37.64;100577.61;102314;1307;61313;-82
2023/07/29 08:30:48;;;;;;;;;;;;;;;30.34;37.72;100577.25;102299;1304;61379;-82
2023/07/29 08:33:14;;;;;;;;;;;;;;;30.34;37.62;100571.11;102255;1303;61437;-82
2023/07/29 08:35:40;;;;;;;;;;;;;;;30.34;37.65;100571.05;102286;1301;61404;-82
2023/07/29 08:38:06;;;;;;;;;;;;;;;30.34;37.58;100564.14;102266;1301;61880;-82
2023/07/29 08:40:31;;;;;;;;;;;;;;;30.35;37.64;100563.56;102230;1305;61416;-82
2023/07/29 08:42:57;;;;;;;;;;;;;;;30.35;37.64;100565.70;102279;1303;61970;-82
2023/07/29 08:45:22;;;;;;;;;;;;;;;30.35;37.57;100563.73;102252;1302;61467;-82
2023/07/29 08:47:47;;;;;;;;;;;;;;;30.35;37.70;100561.89;102273;1303;62325;-82
2023/07/29 08:50:13;;;;;;;;;;;;;;;30.35;37.74;100563.33;102257;1301;61428;-82
2023/07/29 08:52:38;;;;;;;;;;;;;;;30.35;37.51;100559.38;102300;1309;61472;-82
2023/07/29 08:55:04;;;;;;;;;;;;;;;30.35;37.55;100561.81;102387;1304;61348;-82
2023/07/29 08:57:29;;;;;;;;;;;;;;;30.35;37.63;100560.02;102303;1301;61490;-82
2023/07/29 08:59:55;;;;;;;;;;;;;;;30.36;37.61;100564.51;102289;1301;61536;-82
2023/07/29 09:02:20;;;;;;;;;;;;;;;30.36;37.63;100559.20;102220;1305;61496;-82
2023/07/29 09:04:46;;;;;;;;;;;;;;;30.36;37.66;100558.14;102257;1303;61989;-82
2023/07/29 09:07:11;;;;;;;;;;;;;;;30.36;37.68;100558.45;102424;1305;61879;-82
2023/07/29 09:09:36;;;;;;;;;;;;;;;30.36;37.54;100556.68;102284;1307;61442;-82
2023/07/29 09:12:02;;;;;;;;;;;;;;;30.36;37.60;100553.38;102208;1303;61408;-82
2023/07/29 09:14:28;;;;;;;;;;;;;;;30.36;37.58;100550.52;102291;1303;61450;-82
2023/07/29 09:16:54;;;;;;;;;;;;;;;30.36;37.49;100550.27;102272;1303;61517;-82
2023/07/29 09:19:20;;;;;;;;;;;;;;;30.36;37.72;100547.94;102328;1302;61467;-82
2023/07/29 09:21:46;;;;;;;;;;;;;;;30.37;37.66;100543.20;102290;1303;72450;-82
2023/07/29 09:24:12;;;;;;;;;;;;;;;30.37;37.67;100544.30;102270;1301;61644;-82
2023/07/29 09:26:38;;;;;;;;;;;;;;;30.36;37.65;100541.63;102296;1302;61508;-82
2023/07/29 09:29:03;;;;;;;;;;;;;;;30.36;37.67;100546.30;102242;1302;61428;-82
2023/07/29 09:31:28;;;;;;;;;;;;;;;30.36;37.78;100542.69;102274;1308;61801;-82
2023/07/29 09:34:01;;;;;;;;;;;;;;;30.36;37.71;100537.45;102271;1307;61793;-82
2023/07/29 09:36:27;;;;;;;;;;;;;;;30.36;37.77;100539.83;102175;1301;65654;-82
2023/07/29 09:38:55;;;;;;;;;;;;;;;30.36;37.69;100536.33;102253;1303;61569;-82
2023/07/29 09:41:24;;;;;;;;;;;;;;;30.36;37.66;100532.92;102240;1303;61341;-82
2023/07/29 09:43:56;;;;;;;;;;;;;;;30.36;37.74;100534.01;102180;1307;63870;-82
2023/07/29 09:46:23;;;;;;;;;;;;;;;30.35;37.70;100531.32;102199;1303;65826;-82
2023/07/29 09:48:50;;;;;;;;;;;;;;;30.35;37.79;100530.98;102274;1301;61294;-82
2023/07/29 09:51:16;;;;;;;;;;;;;;;30.36;37.68;100528.23;102342;1302;61322;-82
2023/07/29 09:53:47;;;;;;;;;;;;;;;30.35;37.60;100522.69;102277;1305;61416;-82
2023/07/29 09:56:13;;;;;;;;;;;;;;;30.35;37.69;100522.27;102171;1303;65125;-82
2023/07/29 09:58:38;;;;;;;;;;;;;;;30.35;37.77;100521.97;102242;1303;61466;-82
2023/07/29 10:01:08;;;;;;;;;;;;;;;30.35;37.82;100521.42;102244;1303;61346;-82
2023/07/29 10:03:34;;;;;;;;;;;;;;;30.35;37.76;100520.88;102232;1303;63942;-82
2023/07/29 10:06:03;;;;;;;;;;;;;;;30.35;37.71;100516.35;102230;1303;61413;-82
2023/07/29 10:08:40;;;;;;;;;;;;;;;30.34;37.66;100518.23;102357;1300;61431;-82
2023/07/29 10:11:06;;;;;;;;;;;;;;;30.34;37.78;100520.98;102232;1303;61961;-82
2023/07/29 10:13:32;;;;;;;;;;;;;;;30.34;37.80;100515.41;102197;1303;61448;-82
2023/07/29 10:15:57;;;;;;;;;;;;;;;30.34;37.80;100510.48;102300;1305;61447;-82
2023/07/29 10:18:23;;;;;;;;;;;;;;;30.34;37.68;100512.31;102305;1307;61426;-82
2023/07/29 10:20:49;;;;;;;;;;;;;;;30.33;37.83;100510.39;102288;1303;61362;-82
2023/07/29 10:23:14;;;;;;;;;;;;;;;30.33;37.85;100507.10;102326;1303;61413;-82
2023/07/29 10:25:42;;;;;;;;;;;;;;;30.33;37.73;100502.98;102280;1305;61518;-82
2023/07/29 10:28:07;;;;;;;;;;;;;;;30.32;37.76;100505.20;102324;1301;61888;-82
2023/07/29 10:30:33;;;;;;;;;;;;;;;30.32;37.61;100502.85;102314;1306;61380;-82
2023/07/29 10:32:59;;;;;;;;;;;;;;;30.32;37.77;100502.13;102305;1303;62479;-82
2023/07/29 10:35:25;;;;;;;;;;;;;;;30.32;37.70;100501.62;102286;1303;61431;-82
2023/07/29 10:37:52;;;;;;;;;;;;;;;30.32;37.85;100500.50;102275;1303;61483;-82
2023/07/29 10:40:17;;;;;;;;;;;;;;;30.32;37.72;100494.96;102306;1302;61374;-82
2023/07/29 10:43:11;;;;;;;;;;;;;;;30.32;37.78;100494.56;102298;1301;62031;-82
2023/07/29 10:45:37;;;;;;;;;;;;;;;30.32;37.71;100497.14;102264;1303;61345;-82
2023/07/29 10:48:12;;;;;;;;;;;;;;;30.31;37.65;100494.29;102280;1307;61402;-82
2023/07/29 10:50:37;;;;;;;;;;;;;;;30.31;37.74;100491.39;102303;1307;65942;-82
2023/07/29 10:53:03;;;;;;;;;;;;;;;30.31;37.78;100487.25;102242;1301;61424;-82
2023/07/29 10:55:36;;;;;;;;;;;;;;;30.31;37.80;100484.55;102286;1303;61399;-82
2023/07/29 10:58:13;;;;;;;;;;;;;;;30.31;37.80;100488.91;102328;1303;63957;-82
2023/07/29 11:00:41;;;;;;;;;;;;;;;30.30;37.68;100483.88;102336;1303;65846;-82
2023/07/29 11:03:07;;;;;;;;;;;;;;;30.31;37.69;100483.10;102273;1306;62034;-82
2023/07/29 11:05:42;;;;;;;;;;;;;;;30.30;37.64;100480.79;102295;1303;61402;-82
2023/07/29 11:08:19;;;;;;;;;;;;;;;30.30;37.67;100477.52;102244;1303;63659;-82
2023/07/29 11:10:44;;;;;;;;;;;;;;;30.30;37.71;100475.52;102210;1302;65780;-81
2023/07/29 11:13:12;;;;;;;;;;;;;;;30.30;37.75;100476.64;102261;1303;61453;-81
2023/07/29 11:15:37;;;;;;;;;;;;;;;30.30;37.74;100477.20;102190;1302;61450;-81
2023/07/29 11:18:03;;;;;;;;;;;;;;;30.30;37.89;100475.38;102220;1303;62467;-81
2023/07/29 11:20:29;;;;;;;;;;;;;;;30.30;37.69;100476.48;102254;1305;61411;-81
2023/07/29 11:22:55;;;;;;;;;;;;;;;30.30;37.71;100476.45;102268;1301;61487;-81
2023/07/29 11:25:21;;;;;;;;;;;;;;;30.30;37.77;100477.21;102261;1302;61469;-81
2023/07/29 11:27:46;;;;;;;;;;;;;;;30.30;37.78;100473.23;102324;1304;61429;-82
2023/07/29 11:30:13;;;;;;;;;;;;;;;30.29;37.85;100473.05;102215;1305;64062;-81
2023/07/29 11:32:39;;;;;;;;;;;;;;;30.30;37.72;100471.92;102273;1308;65930;-81
2023/07/29 11:35:06;;;;;;;;;;;;;;;30.30;37.80;100469.75;102252;1302;61458;-82
2023/07/29 11:37:32;;;;;;;;;;;;;;;30.30;37.85;100472.84;102213;1303;61518;-81
2023/07/29 11:39:58;;;;;;;;;;;;;;;30.30;37.77;100469.38;102252;1305;61462;-82
2023/07/29 11:42:24;;;;;;;;;;;;;;;30.30;37.71;100465.36;102234;1302;61432;-82
2023/07/29 11:44:50;;;;;;;;;;;;;;;30.30;37.80;100462.81;102278;1303;62294;-82
2023/07/29 11:47:15;;;;;;;;;;;;;;;30.30;37.85;100458.79;102239;1303;61407;-81
2023/07/29 11:49:41;;;;;;;;;;;;;;;30.30;37.89;100453.23;102311;1301;61441;-82
2023/07/29 11:52:07;;;;;;;;;;;;;;;30.30;37.90;100449.02;102301;1303;63965;-82
2023/07/29 11:54:38;;;;;;;;;;;;;;;30.30;37.93;100445.00;102278;1305;61451;-82
2023/07/29 11:57:06;;;;;;;;;;;;;;;30.30;37.97;100443.94;102239;1302;61296;-82
2023/07/29 11:59:31;;;;;;;;;;;;;;;30.30;37.93;100444.84;102282;1303;61277;-82
2023/07/29 12:01:57;;;;;;;;;;;;;;;30.30;37.97;100441.91;102356;1303;61432;-82
2023/07/29 12:04:23;;;;;;;;;;;;;;;30.30;37.92;100437.77;102290;1303;61434;-82
2023/07/29 12:06:48;;;;;;;;;;;;;;;30.31;37.97;100438.57;102280;1303;61330;-82
2023/07/29 12:09:13;;;;;;;;;;;;;;;30.31;37.99;100438.77;102329;1307;61508;-82
2023/07/29 12:11:39;;;;;;;;;;;;;;;30.31;37.91;100434.22;102072;1303;61387;-82
2023/07/29 12:14:08;;;;;;;;;;;;;;;30.31;37.88;100435.27;102239;1303;61515;-82
2023/07/29 12:16:42;;;;;;;;;;;;;;;30.31;37.92;100431.99;102211;1303;65897;-82
2023/07/29 12:19:08;;;;;;;;;;;;;;;30.31;37.87;100428.52;102345;1303;61681;-82
2023/07/29 12:21:33;;;;;;;;;;;;;;;30.32;37.98;100429.92;102236;1303;61755;-82